Time;durP1;ratioP1;P1;durP2;ratioP2;P2;SDS_P1;SDS_P2;PMS_P1;PMS_P2;Temp;Humidity;BMP_temperature;BMP_pressure;BME280_temperature;BME280_humidity;BME280_pressure;Samples;Min_cycle;Max_cycle;Signal;HPM_P1;HPM_P2
2023/03/14 00:00:09;;;;;;;2.07;1.77;;;13.40;93.80;;;;;;5018610;28;20483;-51
2023/03/14 00:02:36;;;;;;;3.23;2.00;;;13.40;93.80;;;;;;5028495;28;20438;-51
2023/03/14 00:05:06;;;;;;;5.53;2.60;;;13.30;94.10;;;;;;5031916;28;21012;-51
2023/03/14 00:07:35;;;;;;;2.17;1.80;;;13.00;94.90;;;;;;5031730;28;20449;-51
2023/03/14 00:10:04;;;;;;;2.20;1.90;;;13.20;94.40;;;;;;5031277;28;21000;-52
2023/03/14 00:12:31;;;;;;;2.20;1.90;;;13.40;94.60;;;;;;5031590;28;20516;-51
2023/03/14 00:14:59;;;;;;;2.47;2.07;;;13.30;94.50;;;;;;5031383;28;20448;-51
2023/03/14 00:17:28;;;;;;;2.53;2.00;;;13.50;94.60;;;;;;5031552;28;20549;-51
2023/03/14 00:19:55;;;;;;;2.20;1.87;;;13.50;95.00;;;;;;5031566;28;20549;-53
2023/03/14 00:22:22;;;;;;;2.03;1.80;;;13.40;95.00;;;;;;5031259;28;20524;-51
2023/03/14 00:24:49;;;;;;;1.90;1.70;;;13.10;94.90;;;;;;5031350;28;20536;-52
2023/03/14 00:27:16;;;;;;;3.60;2.77;;;13.20;95.20;;;;;;5031479;28;20529;-52
2023/03/14 00:29:44;;;;;;;2.20;1.70;;;13.40;94.70;;;;;;5031267;28;20548;-53
2023/03/14 00:32:11;;;;;;;2.70;1.87;;;13.50;95.30;;;;;;5031364;28;20443;-53
2023/03/14 00:34:39;;;;;;;2.27;1.60;;;13.50;94.90;;;;;;5031052;28;20530;-51
2023/03/14 00:37:06;;;;;;;2.90;1.60;;;13.40;95.30;;;;;;5031402;28;20481;-51
2023/03/14 00:39:33;;;;;;;4.73;2.00;;;13.60;95.90;;;;;;5030767;28;20552;-51
2023/03/14 00:42:00;;;;;;;3.00;1.70;;;13.70;95.70;;;;;;5030858;28;20515;-51
2023/03/14 00:44:27;;;;;;;1.83;1.60;;;13.70;95.70;;;;;;5031201;28;20530;-51
2023/03/14 00:46:54;;;;;;;2.13;1.60;;;13.60;95.60;;;;;;5031251;28;20474;-53
2023/03/14 00:49:21;;;;;;;2.13;1.57;;;14.00;94.80;;;;;;5030993;28;20469;-51
2023/03/14 00:51:51;;;;;;;1.63;1.30;;;13.90;94.80;;;;;;5030922;28;20582;-51
2023/03/14 00:54:18;;;;;;;1.70;1.40;;;13.70;95.60;;;;;;5031153;28;20508;-51
2023/03/14 00:56:45;;;;;;;2.73;1.80;;;13.20;96.10;;;;;;5030947;28;20525;-52
2023/03/14 00:59:11;;;;;;;2.10;1.60;;;13.10;96.60;;;;;;5030849;28;20489;-51
2023/03/14 01:01:39;;;;;;;3.43;1.40;;;13.50;96.40;;;;;;5029828;28;20506;-51
2023/03/14 01:04:07;;;;;;;2.90;1.50;;;13.70;95.90;;;;;;5030807;28;20886;-51
2023/03/14 01:06:33;;;;;;;2.07;1.60;;;13.50;96.40;;;;;;5031295;28;20467;-51
2023/03/14 01:09:02;;;;;;;2.17;1.60;;;13.30;96.70;;;;;;5030704;28;20572;-51
2023/03/14 01:11:32;;;;;;;2.90;1.40;;;13.30;98.10;;;;;;5030582;28;20448;-52
2023/03/14 01:13:59;;;;;;;1.50;1.40;;;13.80;97.20;;;;;;5030841;28;20573;-51
2023/03/14 01:16:28;;;;;;;2.13;1.70;;;13.90;96.70;;;;;;5030840;28;20538;-51
2023/03/14 01:18:55;;;;;;;1.60;0.90;;;13.90;96.90;;;;;;5030782;28;21042;-52
2023/03/14 01:21:24;;;;;;;1.53;1.03;;;14.00;96.80;;;;;;5030737;28;20519;-51
2023/03/14 01:23:52;;;;;;;5.13;1.03;;;14.00;96.80;;;;;;5030899;28;21016;-50
2023/03/14 01:26:23;;;;;;;3.57;1.37;;;14.10;95.70;;;;;;5030412;28;20474;-51
2023/03/14 01:28:52;;;;;;;1.93;1.17;;;14.00;96.70;;;;;;5033910;28;20462;-53
2023/03/14 01:31:19;;;;;;;2.70;1.37;;;13.50;97.70;;;;;;5034599;28;20466;-51
2023/03/14 01:33:47;;;;;;;1.80;1.30;;;13.10;97.90;;;;;;5034965;28;20853;-51
2023/03/14 01:36:14;;;;;;;3.10;1.60;;;12.90;98.10;;;;;;5034749;28;20482;-51
2023/03/14 01:38:41;;;;;;;1.77;1.13;;;12.70;98.50;;;;;;5034610;28;20494;-51
2023/03/14 01:41:12;;;;;;;1.83;1.30;;;12.70;98.60;;;;;;5034185;28;20559;-51
2023/03/14 01:43:40;;;;;;;1.90;1.40;;;12.60;99.20;;;;;;5034625;28;20485;-51
2023/03/14 01:46:39;;;;;;;2.90;1.80;;;12.60;98.70;;;;;;5034836;28;20478;-51
2023/03/14 01:49:11;;;;;;;9.60;2.13;;;12.40;98.70;;;;;;5034318;28;20531;-51
2023/03/14 01:51:45;;;;;;;1.90;1.70;;;11.90;98.30;;;;;;5033553;28;20524;-50
2023/03/14 01:54:19;;;;;;;2.30;1.63;;;11.80;98.60;;;;;;5034769;28;20530;-50
2023/03/14 01:56:50;;;;;;;3.90;2.00;;;11.80;98.40;;;;;;5033906;28;20527;-51
2023/03/14 01:59:19;;;;;;;2.30;1.63;;;11.50;98.90;;;;;;5033812;28;20548;-51
2023/03/14 02:01:50;;;;;;;2.30;1.87;;;11.70;98.60;;;;;;5032942;28;20564;-50
2023/03/14 02:04:20;;;;;;;2.97;1.70;;;11.80;98.30;;;;;;5034114;28;20535;-50
2023/03/14 02:06:52;;;;;;;3.53;2.10;;;11.70;98.90;;;;;;5031961;28;20963;-51
2023/03/14 02:09:20;;;;;;;2.40;1.97;;;11.60;98.70;;;;;;5034043;28;20566;-51
2023/03/14 02:11:48;;;;;;;2.93;2.10;;;11.60;98.40;;;;;;5033807;28;20527;-50
2023/03/14 02:14:25;;;;;;;3.10;2.10;;;11.40;98.70;;;;;;5034038;28;20475;-50
2023/03/14 02:16:52;;;;;;;2.03;1.83;;;11.40;98.90;;;;;;5034147;28;20483;-50
2023/03/14 02:19:27;;;;;;;2.47;2.27;;;11.10;99.60;;;;;;5033401;28;20505;-51
2023/03/14 02:22:00;;;;;;;3.93;2.00;;;11.10;99.90;;;;;;5033661;28;20483;-50
2023/03/14 02:24:33;;;;;;;3.90;2.07;;;11.10;99.90;;;;;;5018516;28;20529;-51
2023/03/14 02:27:13;;;;;;;3.83;1.90;;;11.20;99.60;;;;;;5024506;28;20475;-51
2023/03/14 02:29:46;;;;;;;3.23;2.40;;;11.20;99.80;;;;;;5033471;28;20511;-50
2023/03/14 02:32:15;;;;;;;2.20;1.93;;;11.10;99.90;;;;;;5032749;28;20449;-50
2023/03/14 02:34:44;;;;;;;1.80;1.70;;;11.10;99.90;;;;;;5033030;28;20896;-50
2023/03/14 02:37:12;;;;;;;2.73;2.40;;;11.10;99.90;;;;;;5033304;28;20483;-51
2023/03/14 02:39:42;;;;;;;2.27;1.87;;;11.20;99.90;;;;;;5033097;28;21014;-50
2023/03/14 02:42:10;;;;;;;3.60;2.13;;;11.80;99.20;;;;;;5033103;28;20516;-50
2023/03/14 02:44:48;;;;;;;3.20;2.30;;;12.00;98.40;;;;;;5033297;28;20472;-52
2023/03/14 02:47:15;;;;;;;3.70;2.80;;;12.00;98.50;;;;;;5033002;28;20566;-50
2023/03/14 02:49:42;;;;;;;3.93;2.50;;;12.20;98.00;;;;;;5032802;28;20502;-50
2023/03/14 02:52:08;;;;;;;4.27;2.03;;;12.10;98.40;;;;;;5032615;28;20477;-50
2023/03/14 02:54:35;;;;;;;3.33;2.40;;;11.90;98.80;;;;;;5032481;28;20531;-50
2023/03/14 02:57:04;;;;;;;4.73;2.03;;;11.70;99.20;;;;;;5032915;28;20956;-51
2023/03/14 02:59:32;;;;;;;2.73;2.30;;;11.80;99.30;;;;;;5031801;28;20552;-51
2023/03/14 03:02:00;;;;;;;3.17;2.13;;;11.90;99.60;;;;;;5032373;28;20484;-50
2023/03/14 03:04:27;;;;;;;3.43;2.33;;;12.10;99.30;;;;;;5032865;28;20478;-50
2023/03/14 03:06:54;;;;;;;3.23;2.07;;;11.70;99.90;;;;;;5032821;28;20530;-51
2023/03/14 03:09:21;;;;;;;3.47;2.70;;;11.50;99.90;;;;;;5032037;28;20502;-52
2023/03/14 03:11:48;;;;;;;3.10;2.47;;;11.40;99.90;;;;;;5032324;28;20480;-50
2023/03/14 03:14:15;;;;;;;2.77;2.00;;;11.30;99.90;;;;;;5032379;28;20476;-51
2023/03/14 03:16:43;;;;;;;3.47;2.30;;;11.10;99.90;;;;;;5032800;28;20471;-50
2023/03/14 03:19:10;;;;;;;3.37;2.07;;;11.00;99.90;;;;;;5032473;28;20501;-51
2023/03/14 03:21:37;;;;;;;2.93;2.53;;;11.10;99.90;;;;;;5032377;28;20830;-51
2023/03/14 03:24:04;;;;;;;3.50;1.80;;;11.30;99.90;;;;;;5032211;28;20517;-51
2023/03/14 03:26:31;;;;;;;1.80;1.60;;;11.40;99.90;;;;;;5032448;28;20536;-51
2023/03/14 03:28:58;;;;;;;3.23;1.90;;;11.50;99.90;;;;;;5032263;28;20520;-52
2023/03/14 03:31:25;;;;;;;3.70;2.03;;;11.30;99.90;;;;;;5031938;28;20965;-51
2023/03/14 03:33:53;;;;;;;4.20;2.23;;;11.20;99.90;;;;;;5032355;28;20535;-51
2023/03/14 03:36:22;;;;;;;2.53;2.33;;;11.10;99.90;;;;;;5032525;28;20889;-51
2023/03/14 03:38:49;;;;;;;2.73;2.30;;;11.10;99.90;;;;;;5032153;28;20468;-50
2023/03/14 03:41:16;;;;;;;7.10;3.57;;;11.10;99.90;;;;;;5031382;28;20491;-53
2023/03/14 03:43:43;;;;;;;3.30;2.50;;;10.90;99.90;;;;;;5032044;28;20480;-50
2023/03/14 03:46:10;;;;;;;5.40;2.60;;;10.90;99.90;;;;;;5031654;28;20529;-52
2023/03/14 03:48:37;;;;;;;3.50;2.47;;;10.80;99.90;;;;;;5032276;28;20914;-50
2023/03/14 03:51:06;;;;;;;4.07;2.90;;;10.80;99.90;;;;;;5031345;28;20535;-50
2023/03/14 03:53:33;;;;;;;4.70;2.43;;;10.40;99.90;;;;;;5032069;28;20523;-52
2023/03/14 03:56:00;;;;;;;2.20;2.00;;;10.50;99.90;;;;;;5031331;28;20482;-50
2023/03/14 03:58:27;;;;;;;2.97;2.40;;;10.50;99.90;;;;;;5031674;28;20494;-50
2023/03/14 04:00:55;;;;;;;3.27;2.17;;;10.50;99.90;;;;;;5031172;28;20545;-51
2023/03/14 04:03:22;;;;;;;2.50;2.30;;;10.30;99.90;;;;;;5031556;28;20511;-51
2023/03/14 04:05:59;;;;;;;2.57;1.90;;;10.20;99.90;;;;;;5031520;28;20478;-50
2023/03/14 04:08:27;;;;;;;2.50;2.00;;;9.90;99.90;;;;;;5031273;28;20524;-50
2023/03/14 04:10:56;;;;;;;2.30;2.10;;;9.90;99.90;;;;;;5031857;28;20534;-50
2023/03/14 04:13:23;;;;;;;2.90;2.60;;;9.90;99.90;;;;;;5031619;28;20470;-50
2023/03/14 04:15:50;;;;;;;3.03;2.60;;;9.70;99.90;;;;;;5031946;28;20474;-51
2023/03/14 04:18:17;;;;;;;5.83;2.90;;;9.80;99.90;;;;;;5030567;28;20526;-50
2023/03/14 04:20:44;;;;;;;2.70;2.50;;;9.90;99.90;;;;;;5031349;28;20486;-52
2023/03/14 04:23:11;;;;;;;2.93;2.60;;;9.80;99.90;;;;;;5031690;28;20512;-51
2023/03/14 04:25:40;;;;;;;4.43;2.30;;;9.80;99.90;;;;;;5031693;28;20471;-52
2023/03/14 04:28:06;;;;;;;4.17;3.40;;;9.70;99.90;;;;;;5031410;28;20485;-51
2023/03/14 04:30:33;;;;;;;3.10;2.80;;;9.40;99.90;;;;;;5031446;28;20538;-51
2023/03/14 04:33:00;;;;;;;2.90;2.17;;;9.60;99.90;;;;;;5031067;28;20922;-50
2023/03/14 04:35:27;;;;;;;3.23;2.43;;;9.70;99.90;;;;;;5031314;28;20871;-51
2023/03/14 04:37:54;;;;;;;2.40;2.20;;;9.50;99.90;;;;;;5031213;28;20965;-50
2023/03/14 04:40:21;;;;;;;3.90;2.60;;;9.40;99.90;;;;;;5031056;28;20845;-51
2023/03/14 04:42:49;;;;;;;5.43;2.27;;;9.10;99.90;;;;;;5031074;28;20562;-51
2023/03/14 04:45:16;;;;;;;3.70;1.90;;;9.10;99.90;;;;;;5031404;28;20530;-50
2023/03/14 04:47:43;;;;;;;2.63;2.00;;;8.90;99.90;;;;;;5031329;28;20471;-52
2023/03/14 04:50:11;;;;;;;2.73;2.40;;;9.20;99.90;;;;;;5030705;28;20549;-51
2023/03/14 04:52:38;;;;;;;1.77;1.30;;;9.30;99.90;;;;;;5011621;28;20465;-51
2023/03/14 04:55:06;;;;;;;1.53;1.20;;;9.50;99.90;;;;;;5011408;28;20957;-50
2023/03/14 04:57:32;;;;;;;1.87;1.40;;;9.50;99.90;;;;;;5011431;28;21014;-51
2023/03/14 05:00:01;;;;;;;1.63;1.43;;;9.50;99.90;;;;;;5026477;28;20467;-50
2023/03/14 05:02:28;;;;;;;3.27;2.97;;;9.50;99.90;;;;;;5031059;28;20474;-52
2023/03/14 05:04:55;;;;;;;2.30;1.60;;;9.30;99.90;;;;;;5031313;28;20567;-51
2023/03/14 05:07:22;;;;;;;2.20;1.30;;;9.00;99.90;;;;;;5031172;28;20474;-50
2023/03/14 05:09:48;;;;;;;1.63;1.27;;;8.50;99.90;;;;;;5064432;22;20516;-79
2023/03/14 05:12:15;;;;;;;2.10;1.80;;;8.40;99.90;;;;;;5048935;28;20552;-78
2023/03/14 05:14:42;;;;;;;2.33;1.70;;;8.40;99.90;;;;;;5049999;28;20469;-79
2023/03/14 05:17:11;;;;;;;2.50;1.50;;;8.70;99.90;;;;;;5048929;28;21033;-78
2023/03/14 05:19:38;;;;;;;1.60;1.30;;;8.90;99.90;;;;;;5049469;28;20468;-78
2023/03/14 05:22:05;;;;;;;3.60;2.30;;;9.10;99.90;;;;;;5049352;28;20524;-79
2023/03/14 05:24:32;;;;;;;1.80;1.60;;;9.20;99.90;;;;;;5049739;28;20532;-78
2023/03/14 05:26:59;;;;;;;1.60;1.40;;;9.10;99.90;;;;;;5049231;28;20863;-78
2023/03/14 05:29:25;;;;;;;4.57;3.70;;;9.10;99.90;;;;;;5049268;28;20532;-79
2023/03/14 05:31:52;;;;;;;6.60;1.90;;;9.10;99.90;;;;;;5049046;28;20517;-78
2023/03/14 05:34:21;;;;;;;1.37;0.80;;;9.00;99.90;;;;;;5050014;28;20885;-79
2023/03/14 05:36:48;;;;;;;1.40;0.93;;;8.70;99.90;;;;;;5048953;28;20536;-78
2023/03/14 05:39:15;;;;;;;1.60;0.90;;;8.50;99.90;;;;;;5048703;28;20528;-78
2023/03/14 05:41:42;;;;;;;1.97;1.10;;;8.60;99.90;;;;;;5048938;28;20524;-79
2023/03/14 05:44:08;;;;;;;1.70;0.70;;;8.70;99.90;;;;;;5049216;28;21016;-79
2023/03/14 05:46:35;;;;;;;2.40;1.00;;;8.50;99.90;;;;;;5048178;28;20533;-77
2023/03/14 05:49:02;;;;;;;1.40;1.00;;;8.60;99.90;;;;;;5047328;28;20474;-78
2023/03/14 05:51:30;;;;;;;1.50;1.10;;;8.70;99.90;;;;;;5048211;28;20497;-78
2023/03/14 05:53:57;;;;;;;3.20;0.80;;;8.50;99.90;;;;;;5048548;28;20537;-78
2023/03/14 05:56:24;;;;;;;2.00;1.20;;;8.70;99.90;;;;;;5048770;28;20893;-79
2023/03/14 05:58:51;;;;;;;2.07;1.40;;;8.80;99.90;;;;;;5048943;28;20525;-78
2023/03/14 06:03:51;;;;;;;2.27;1.97;;;8.80;99.90;;;;;;5061954;28;20487;-47
2023/03/14 06:06:18;;;;;;;1.63;1.40;;;8.90;99.90;;;;;;5075367;28;20531;-48
2023/03/14 06:08:46;;;;;;;2.07;1.60;;;8.80;99.90;;;;;;5087368;28;20896;-48
2023/03/14 06:11:13;;;;;;;2.30;1.80;;;8.80;99.90;;;;;;5087392;28;21136;-49
2023/03/14 06:13:40;;;;;;;1.80;1.50;;;8.80;99.90;;;;;;5095284;28;20515;-48
2023/03/14 06:16:08;;;;;;;1.60;1.37;;;8.80;99.90;;;;;;5084900;28;20587;-48
2023/03/14 06:18:34;;;;;;;1.90;1.70;;;8.90;99.90;;;;;;5080787;28;20436;-48
2023/03/14 06:21:01;;;;;;;3.27;1.73;;;8.80;99.90;;;;;;5093193;28;20523;-48
2023/03/14 06:23:30;;;;;;;1.97;1.30;;;8.50;99.90;;;;;;5092456;28;20518;-48
2023/03/14 06:25:59;;;;;;;2.13;1.63;;;8.60;99.90;;;;;;5093708;28;20451;-49
2023/03/14 06:28:26;;;;;;;1.67;1.43;;;8.60;99.90;;;;;;5093308;28;21022;-48
2023/03/14 06:30:52;;;;;;;2.70;1.37;;;8.80;99.90;;;;;;5092983;28;20989;-48
2023/03/14 06:33:19;;;;;;;2.00;1.43;;;8.30;99.90;;;;;;5093872;28;20515;-49
2023/03/14 06:35:46;;;;;;;1.77;1.40;;;8.40;99.90;;;;;;5093349;28;20526;-49
2023/03/14 06:38:13;;;;;;;3.07;1.90;;;8.10;99.90;;;;;;5093606;28;20530;-49
2023/03/14 06:40:40;;;;;;;1.80;1.60;;;7.80;99.90;;;;;;5093394;28;20987;-49
2023/03/14 06:43:08;;;;;;;2.53;2.07;;;7.80;99.90;;;;;;5093304;28;20983;-50
2023/03/14 06:45:35;;;;;;;3.23;2.00;;;7.70;99.90;;;;;;5093870;28;20471;-49
2023/03/14 06:48:02;;;;;;;3.60;2.17;;;7.90;99.90;;;;;;5093607;28;20518;-49
2023/03/14 06:50:29;;;;;;;2.30;2.10;;;7.90;99.90;;;;;;5093440;28;20492;-50
2023/03/14 06:52:56;;;;;;;2.47;2.10;;;8.20;99.90;;;;;;5093164;28;20519;-50
2023/03/14 06:55:23;;;;;;;2.70;2.27;;;8.40;99.90;;;;;;5093367;28;20926;-49
2023/03/14 06:57:49;;;;;;;3.20;2.70;;;8.60;99.90;;;;;;5093212;28;20527;-49
2023/03/14 07:00:19;;;;;;;3.00;2.20;;;8.60;99.90;;;;;;5093042;28;20531;-49
2023/03/14 07:02:47;;;;;;;2.30;1.93;;;8.70;99.90;;;;;;5093639;28;20475;-49
2023/03/14 07:05:13;;;;;;;2.43;2.20;;;8.70;99.90;;;;;;5093196;28;20486;-50
2023/03/14 07:07:40;;;;;;;3.20;2.90;;;8.80;99.90;;;;;;5093169;28;20527;-50
2023/03/14 07:10:08;;;;;;;3.27;2.37;;;8.80;99.90;;;;;;5092349;28;20542;-49
2023/03/14 07:12:35;;;;;;;1.93;1.40;;;8.70;99.90;;;;;;5092873;28;20444;-49
2023/03/14 07:15:02;;;;;;;2.90;1.90;;;8.80;99.90;;;;;;5093251;28;21014;-51
2023/03/14 07:17:30;;;;;;;2.20;1.77;;;8.90;99.90;;;;;;5093085;28;20443;-49
2023/03/14 07:19:59;;;;;;;5.50;3.30;;;8.70;99.90;;;;;;5093056;28;20509;-49
2023/03/14 07:22:25;;;;;;;4.30;2.93;;;8.80;99.90;;;;;;5092427;28;20936;-50
2023/03/14 07:24:52;;;;;;;4.40;2.90;;;8.80;99.90;;;;;;5091288;28;20520;-50
2023/03/14 07:27:19;;;;;;;5.00;3.70;;;8.90;99.90;;;;;;5093059;28;20517;-49
2023/03/14 07:29:46;;;;;;;2.47;2.27;;;8.90;99.90;;;;;;5093157;28;20495;-49
2023/03/14 07:32:14;;;;;;;2.60;2.40;;;8.80;99.90;;;;;;5092772;28;20530;-49
2023/03/14 07:34:42;;;;;;;3.70;3.33;;;8.50;99.90;;;;;;5092743;28;20508;-49
2023/03/14 07:37:10;;;;;;;7.37;4.90;;;8.20;99.90;;;;;;5092990;28;20872;-49
2023/03/14 07:39:37;;;;;;;6.90;3.83;;;8.40;99.90;;;;;;5092724;28;20544;-50
2023/03/14 07:42:04;;;;;;;4.33;3.30;;;8.70;99.90;;;;;;5092325;28;20479;-48
2023/03/14 07:44:31;;;;;;;3.90;3.50;;;8.70;99.90;;;;;;5092686;28;20507;-49
2023/03/14 07:46:58;;;;;;;3.37;3.07;;;8.80;99.90;;;;;;5092272;28;20475;-49
2023/03/14 07:49:25;;;;;;;3.93;3.53;;;8.80;99.90;;;;;;5092434;28;20908;-49
2023/03/14 07:51:53;;;;;;;3.63;3.00;;;8.60;99.90;;;;;;5092441;28;20482;-50
2023/03/14 07:54:20;;;;;;;5.03;3.77;;;8.10;99.90;;;;;;5092317;28;20527;-49
2023/03/14 07:56:47;;;;;;;2.70;2.47;;;7.90;99.90;;;;;;5092393;28;21009;-49
2023/03/14 07:59:14;;;;;;;4.13;1.63;;;7.80;99.90;;;;;;5092157;28;20556;-50
2023/03/14 08:01:40;;;;;;;3.97;1.63;;;7.80;99.90;;;;;;5091697;28;20468;-48
2023/03/14 08:04:07;;;;;;;1.70;1.07;;;7.70;99.90;;;;;;5092363;28;20566;-49
2023/03/14 08:06:36;;;;;;;1.53;0.90;;;7.60;99.90;;;;;;5089668;28;20531;-50
2023/03/14 08:09:04;;;;;;;2.30;1.27;;;7.50;99.90;;;;;;5091093;28;21069;-49
2023/03/14 08:11:31;;;;;;;2.07;1.70;;;7.50;99.90;;;;;;5091658;28;20464;-49
2023/03/14 08:13:58;;;;;;;6.00;4.50;;;7.60;99.90;;;;;;5092144;28;20523;-49
2023/03/14 08:16:25;;;;;;;1.73;1.27;;;7.50;99.90;;;;;;5091663;28;20815;-49
2023/03/14 08:18:52;;;;;;;2.67;1.10;;;7.60;99.90;;;;;;5091423;28;20495;-50
2023/03/14 08:21:19;;;;;;;1.97;1.10;;;7.70;99.90;;;;;;5091860;28;20535;-48
2023/03/14 08:23:46;;;;;;;1.97;1.30;;;7.80;99.90;;;;;;5091844;28;21036;-48
2023/03/14 08:26:14;;;;;;;1.70;1.10;;;7.80;99.90;;;;;;5090963;28;20530;-49
2023/03/14 08:28:41;;;;;;;2.53;1.40;;;7.90;99.90;;;;;;5078042;28;20515;-49
2023/03/14 08:31:08;;;;;;;2.07;0.80;;;7.70;99.90;;;;;;5070290;28;20496;-49
2023/03/14 08:33:35;;;;;;;2.20;1.20;;;7.70;99.90;;;;;;5070215;28;20544;-49
2023/03/14 08:36:01;;;;;;;1.83;0.80;;;7.70;99.90;;;;;;5071180;28;20529;-49
2023/03/14 08:38:28;;;;;;;6.27;1.27;;;7.70;99.90;;;;;;5071541;28;20898;-49
2023/03/14 08:40:59;;;;;;;1.73;1.50;;;7.80;99.90;;;;;;5070464;28;21127;-49
2023/03/14 08:43:27;;;;;;;3.03;2.20;;;7.90;99.90;;;;;;5070859;28;20491;-49
2023/03/14 08:45:54;;;;;;;2.40;2.10;;;8.10;99.90;;;;;;5071173;28;21038;-51
2023/03/14 08:48:21;;;;;;;12.10;8.90;;;8.40;99.90;;;;;;5070350;28;20904;-49
2023/03/14 08:50:48;;;;;;;77.67;45.23;;;8.50;99.90;;;;;;5070807;28;20567;-49
2023/03/14 08:53:15;;;;;;;6.50;5.57;;;8.30;99.90;;;;;;5070948;28;20464;-49
2023/03/14 08:55:42;;;;;;;3.07;2.27;;;8.00;99.90;;;;;;5070942;28;20527;-49
2023/03/14 08:58:09;;;;;;;2.63;2.20;;;7.70;99.90;;;;;;5070213;28;20464;-50
2023/03/14 09:00:37;;;;;;;3.20;2.27;;;8.10;99.90;;;;;;5070498;28;20544;-49
2023/03/14 09:03:04;;;;;;;3.60;2.07;;;7.90;99.90;;;;;;5070809;28;20875;-49
2023/03/14 09:05:34;;;;;;;2.23;2.00;;;7.80;99.90;;;;;;5070387;28;20783;-48
2023/03/14 09:08:01;;;;;;;3.00;2.53;;;7.80;99.90;;;;;;5070664;28;20445;-49
2023/03/14 09:10:28;;;;;;;3.13;2.83;;;7.70;99.90;;;;;;5070274;28;20557;-49
2023/03/14 09:12:56;;;;;;;6.00;3.90;;;7.70;99.90;;;;;;5070971;28;20524;-48
2023/03/14 09:15:23;;;;;;;3.27;2.63;;;8.20;99.90;;;;;;5070785;28;20448;-49
2023/03/14 09:17:52;;;;;;;3.10;2.50;;;8.30;99.90;;;;;;5070985;28;20480;-49
2023/03/14 09:20:19;;;;;;;1.93;1.50;;;8.40;99.90;;;;;;5072723;28;21013;-48
2023/03/14 09:22:46;;;;;;;7.20;6.00;;;8.40;99.90;;;;;;5079901;28;20879;-49
2023/03/14 09:25:12;;;;;;;5.20;2.37;;;8.40;99.90;;;;;;5090597;28;20503;-48
2023/03/14 09:27:39;;;;;;;3.07;2.43;;;8.40;99.90;;;;;;5091325;28;20565;-49
2023/03/14 09:30:07;;;;;;;2.70;2.20;;;8.10;99.90;;;;;;5090861;28;20897;-50
2023/03/14 09:32:34;;;;;;;3.67;2.57;;;8.00;99.90;;;;;;5091021;28;20528;-49
2023/03/14 09:35:02;;;;;;;5.17;3.03;;;7.70;99.90;;;;;;5089495;28;20435;-46
2023/03/14 09:37:29;;;;;;;2.50;2.30;;;7.80;99.90;;;;;;5090957;28;20531;-49
2023/03/14 09:39:56;;;;;;;2.60;1.90;;;7.50;99.90;;;;;;5091081;28;20513;-49
2023/03/14 09:42:27;;;;;;;3.77;2.90;;;7.30;99.90;;;;;;5090807;28;20530;-49
2023/03/14 09:44:58;;;;;;;3.23;2.13;;;7.40;99.90;;;;;;5090957;28;20482;-49
2023/03/14 09:47:25;;;;;;;5.47;2.70;;;7.80;99.90;;;;;;5091103;28;20530;-50
2023/03/14 09:49:52;;;;;;;3.67;3.23;;;7.70;99.90;;;;;;5093897;28;20459;-49
2023/03/14 09:52:25;;;;;;;4.33;2.83;;;7.60;99.90;;;;;;5094750;28;20458;-50
2023/03/14 09:54:55;;;;;;;4.03;3.03;;;7.80;99.90;;;;;;5095065;28;20467;-50
2023/03/14 09:57:25;;;;;;;2.73;2.13;;;7.90;99.90;;;;;;5094391;28;20546;-49
2023/03/14 09:59:55;;;;;;;2.63;2.43;;;7.50;99.90;;;;;;5093972;28;20516;-51
2023/03/14 10:02:24;;;;;;;3.07;2.77;;;7.70;99.90;;;;;;5094521;28;20487;-49
2023/03/14 10:04:53;;;;;;;4.10;3.20;;;7.60;99.90;;;;;;5094283;28;20515;-49
2023/03/14 10:07:28;;;;;;;5.10;3.37;;;7.70;99.90;;;;;;5092452;28;20530;-50
2023/03/14 10:09:55;;;;;;;4.73;3.97;;;7.80;99.90;;;;;;5093451;28;20498;-49
2023/03/14 10:12:32;;;;;;;2.20;2.00;;;7.90;99.90;;;;;;5094104;28;20937;-49
2023/03/14 10:15:04;;;;;;;2.50;2.17;;;8.00;99.90;;;;;;5094080;28;20443;-49
2023/03/14 10:17:39;;;;;;;4.00;2.50;;;8.10;99.90;;;;;;5094095;28;20938;-50
2023/03/14 10:20:10;;;;;;;3.37;2.53;;;7.60;99.90;;;;;;5094109;28;20547;-49
2023/03/14 10:22:39;;;;;;;2.10;1.90;;;7.90;99.90;;;;;;5093835;28;20475;-49
2023/03/14 10:25:24;;;;;;;4.20;2.43;;;7.80;99.90;;;;;;5093749;28;20559;-49
2023/03/14 10:27:51;;;;;;;3.83;2.83;;;7.70;99.90;;;;;;5094445;28;20475;-49
2023/03/14 10:30:31;;;;;;;3.37;2.43;;;7.80;99.90;;;;;;5092624;28;20495;-49
2023/03/14 10:32:58;;;;;;;2.73;2.20;;;7.50;99.90;;;;;;5092775;28;21005;-49
2023/03/14 10:35:25;;;;;;;3.70;3.40;;;7.60;99.90;;;;;;5093379;28;20523;-48
2023/03/14 10:37:57;;;;;;;6.43;5.87;;;7.70;99.90;;;;;;5093213;28;20942;-49
2023/03/14 10:40:29;;;;;;;4.07;3.67;;;7.60;99.90;;;;;;5094007;28;20487;-50
2023/03/14 10:42:56;;;;;;;2.30;1.20;;;7.40;99.90;;;;;;5093595;28;20446;-48
2023/03/14 10:45:32;;;;;;;1.47;1.00;;;7.40;99.90;;;;;;5093848;28;20518;-48
2023/03/14 10:48:06;;;;;;;1.10;1.00;;;7.40;99.90;;;;;;5093644;28;20533;-48
2023/03/14 10:50:34;;;;;;;1.03;0.80;;;7.10;99.90;;;;;;5093810;28;20554;-49
2023/03/14 10:53:06;;;;;;;1.20;0.80;;;7.40;99.90;;;;;;5093751;28;20436;-49
2023/03/14 10:55:41;;;;;;;11.27;7.63;;;7.50;99.90;;;;;;5093701;28;20436;-50
2023/03/14 10:58:20;;;;;;;6.43;3.67;;;7.60;99.90;;;;;;5092841;28;20530;-49
2023/03/14 11:00:50;;;;;;;2.70;1.70;;;7.70;99.90;;;;;;5091910;28;20482;-51
2023/03/14 11:03:20;;;;;;;1.70;1.10;;;7.80;99.90;;;;;;5093215;28;21049;-50
2023/03/14 11:05:54;;;;;;;2.07;1.30;;;7.80;99.90;;;;;;5093161;28;20511;-50
2023/03/14 11:08:28;;;;;;;3.27;1.40;;;7.90;99.90;;;;;;5092638;28;20527;-50
2023/03/14 11:11:03;;;;;;;2.90;1.70;;;8.10;99.90;;;;;;5087728;28;20561;-50
2023/03/14 11:13:39;;;;;;;2.10;1.40;;;8.10;99.90;;;;;;5077131;28;20559;-49
2023/03/14 11:16:15;;;;;;;4.63;1.43;;;8.10;99.90;;;;;;5085218;28;20973;-51
2023/03/14 11:19:00;;;;;;;1.20;1.00;;;8.20;99.90;;;;;;5084054;28;20433;-50
2023/03/14 11:21:36;;;;;;;1.40;1.00;;;8.20;99.90;;;;;;5092993;28;20476;-52
2023/03/14 11:24:29;;;;;;;1.37;1.10;;;8.20;99.90;;;;;;5081149;28;20532;-49
2023/03/14 11:27:02;;;;;;;1.30;1.10;;;8.20;99.90;;;;;;5074959;28;20886;-49
2023/03/14 11:29:37;;;;;;;1.80;1.30;;;8.20;99.90;;;;;;5076842;28;20706;-49
2023/03/14 11:32:13;;;;;;;1.30;0.80;;;8.30;99.90;;;;;;5089853;28;20538;-48
2023/03/14 11:34:45;;;;;;;2.67;0.90;;;8.10;99.90;;;;;;5088592;28;20533;-49
2023/03/14 11:37:18;;;;;;;1.43;0.63;;;8.30;99.90;;;;;;5090688;28;21171;-48
2023/03/14 11:39:53;;;;;;;1.00;0.73;;;8.50;99.90;;;;;;5080736;28;21059;-50
2023/03/14 11:42:22;;;;;;;1.00;0.60;;;8.70;99.90;;;;;;5078650;28;20979;-49
2023/03/14 11:44:50;;;;;;;2.10;1.50;;;8.70;99.90;;;;;;5089713;28;20520;-50
2023/03/14 11:47:21;;;;;;;1.80;1.17;;;8.70;99.90;;;;;;5088515;28;20696;-49
2023/03/14 11:49:51;;;;;;;2.53;1.60;;;8.80;99.90;;;;;;5086613;28;20474;-49
2023/03/14 11:52:24;;;;;;;2.60;1.60;;;9.00;99.90;;;;;;5089001;28;20460;-51
2023/03/14 11:54:57;;;;;;;1.60;1.00;;;9.00;99.90;;;;;;5091994;28;20523;-51
2023/03/14 11:57:25;;;;;;;1.07;0.67;;;9.10;99.90;;;;;;5085152;28;20481;-49
2023/03/14 11:59:56;;;;;;;1.10;0.70;;;9.10;99.90;;;;;;5082919;28;20472;-50
2023/03/14 12:02:28;;;;;;;0.97;0.50;;;9.10;99.90;;;;;;5091196;28;20535;-49
2023/03/14 12:05:19;;;;;;;1.00;0.50;;;8.80;99.90;;;;;;5081284;28;20529;-49
2023/03/14 12:08:12;;;;;;;0.90;0.60;;;9.00;99.90;;;;;;5081244;28;20482;-49
2023/03/14 12:10:44;;;;;;;1.40;0.73;;;9.10;99.90;;;;;;5085285;28;20568;-49
2023/03/14 12:13:13;;;;;;;1.00;0.63;;;9.00;99.90;;;;;;5085069;28;20500;-48
2023/03/14 12:15:43;;;;;;;1.10;0.80;;;9.00;99.90;;;;;;5108308;22;20577;-82
2023/03/14 12:18:21;;;;;;;1.50;0.90;;;9.00;99.90;;;;;;5068971;28;20476;-83
2023/03/14 12:20:54;;;;;;;11.40;8.70;;;9.00;99.90;;;;;;5066430;28;20897;-83
2023/03/14 12:23:21;;;;;;;3.30;2.30;;;9.10;99.90;;;;;;5062576;28;20489;-82
2023/03/14 12:26:09;;;;;;;8.67;5.37;;;9.20;99.90;;;;;;5067308;28;20480;-81
2023/03/14 12:28:36;;;;;;;10.10;6.00;;;9.30;99.90;;;;;;5073567;28;20536;-81
2023/03/14 12:31:38;;;;;;;1.47;1.17;;;9.30;99.90;;;;;;5072696;28;20463;-81
2023/03/14 12:34:32;;;;;;;1.80;1.03;;;9.20;99.90;;;;;;5066387;28;20526;-82
2023/03/14 12:37:13;;;;;;;1.20;0.90;;;9.10;99.90;;;;;;5074791;28;20929;-82
2023/03/14 12:39:47;;;;;;;1.10;0.90;;;8.90;99.90;;;;;;5072298;28;20513;-83
2023/03/14 12:42:22;;;;;;;1.40;0.87;;;8.80;99.90;;;;;;5072558;28;20451;-83
2023/03/14 12:44:50;;;;;;;1.23;0.70;;;8.80;99.90;;;;;;5072913;28;20567;-83
2023/03/14 12:47:51;;;;;;;1.10;0.80;;;8.70;99.90;;;;;;5073387;28;20448;-85
2023/03/14 12:50:39;;;;;;;1.37;0.60;;;9.00;99.90;;;;;;5073697;28;20441;-85
2023/03/14 12:53:41;;;;;;;4.20;0.80;;;9.20;99.90;;;;;;5047883;28;20674;-85
2023/03/14 12:56:20;;;;;;;1.30;0.70;;;9.40;99.90;;;;;;5053359;28;20453;-85
2023/03/14 12:59:06;;;;;;;0.93;0.60;;;9.30;99.90;;;;;;5054899;28;20434;-84
2023/03/14 13:01:35;;;;;;;2.90;2.70;;;9.20;99.90;;;;;;5053032;28;20541;-84
2023/03/14 13:04:08;;;;;;;2.60;1.60;;;9.30;99.90;;;;;;5052817;28;20456;-85
2023/03/14 13:06:54;;;;;;;1.10;0.90;;;9.30;99.90;;;;;;5052112;28;20573;-84